Time;durP1;ratioP1;P1;durP2;ratioP2;P2;SDS_P1;SDS_P2;PMS_P1;PMS_P2;Temp;Humidity;BMP_temperature;BMP_pressure;BME280_temperature;BME280_humidity;BME280_pressure;Samples;Min_cycle;Max_cycle;Signal;HPM_P1;HPM_P2
2022/07/11 00:02:08;;;;;;;3.00;0.80;;;15.40;99.90;;;;;;5055111;28;20674;-68
2022/07/11 00:04:35;;;;;;;3.50;0.90;;;15.30;99.90;;;;;;5054636;28;20048;-66
2022/07/11 00:07:02;;;;;;;3.17;0.80;;;15.40;99.90;;;;;;5054734;28;20239;-68
2022/07/11 00:09:28;;;;;;;5.35;1.10;;;15.30;99.90;;;;;;5052308;28;20147;-68
2022/07/11 00:11:54;;;;;;;5.50;1.10;;;15.30;99.90;;;;;;5052259;28;20033;-68
2022/07/11 00:14:21;;;;;;;3.08;1.23;;;15.20;99.90;;;;;;5052643;28;20062;-68
2022/07/11 00:16:47;;;;;;;5.15;1.80;;;15.30;99.90;;;;;;5056625;28;20443;-68
2022/07/11 00:19:13;;;;;;;3.38;1.30;;;15.20;99.90;;;;;;5053258;28;20105;-69
2022/07/11 00:21:39;;;;;;;2.20;1.17;;;15.20;99.90;;;;;;5035792;28;20053;-67
2022/07/11 00:24:07;;;;;;;3.83;1.48;;;15.20;99.90;;;;;;5056426;28;20039;-68
2022/07/11 00:26:36;;;;;;;3.95;1.50;;;15.20;99.90;;;;;;5053993;28;20396;-68
2022/07/11 00:29:02;;;;;;;4.18;1.58;;;15.20;99.90;;;;;;5051088;28;20335;-68
2022/07/11 00:31:28;;;;;;;5.43;1.80;;;15.20;99.90;;;;;;5054726;28;20581;-68
2022/07/11 00:33:54;;;;;;;4.43;2.17;;;15.10;99.90;;;;;;5038119;28;20056;-67
2022/07/11 00:36:20;;;;;;;4.97;2.03;;;15.00;99.90;;;;;;5056273;28;20679;-67
2022/07/11 00:38:46;;;;;;;4.85;1.98;;;15.00;99.90;;;;;;5053065;28;20039;-68
2022/07/11 00:41:12;;;;;;;3.63;2.10;;;14.90;99.90;;;;;;5050815;28;20113;-68
2022/07/11 00:43:39;;;;;;;6.43;2.70;;;14.90;99.90;;;;;;5040569;28;20048;-67
2022/07/11 00:46:06;;;;;;;7.50;2.75;;;14.80;99.90;;;;;;5052372;28;20558;-68
2022/07/11 00:48:32;;;;;;;6.82;3.63;;;14.80;99.90;;;;;;5070301;28;20150;-67
2022/07/11 00:50:59;;;;;;;12.35;4.35;;;14.80;99.90;;;;;;5052077;28;20086;-68
2022/07/11 00:53:26;;;;;;;10.25;4.20;;;14.80;99.90;;;;;;5056406;28;20058;-67
2022/07/11 00:55:53;;;;;;;8.82;5.03;;;14.70;99.90;;;;;;5054454;28;20036;-68
2022/07/11 00:58:19;;;;;;;7.22;4.43;;;14.70;99.90;;;;;;5039295;28;20632;-68
2022/07/11 01:00:45;;;;;;;9.93;5.38;;;14.70;99.90;;;;;;5055138;28;20048;-69
2022/07/11 01:03:11;;;;;;;11.95;5.68;;;14.70;99.90;;;;;;5054118;28;20558;-68
2022/07/11 01:05:37;;;;;;;12.23;6.00;;;14.80;99.90;;;;;;5057682;28;20044;-69
2022/07/11 01:08:03;;;;;;;9.05;4.60;;;14.80;99.90;;;;;;5061378;28;20062;-68
2022/07/11 01:10:29;;;;;;;8.00;4.90;;;14.80;99.90;;;;;;5059130;28;20402;-69
2022/07/11 01:12:55;;;;;;;11.35;5.00;;;14.70;99.90;;;;;;5057352;28;20039;-68
2022/07/11 01:15:26;;;;;;;8.57;5.30;;;14.70;99.90;;;;;;5058792;28;20190;-67
2022/07/11 01:17:52;;;;;;;9.82;4.78;;;14.70;99.90;;;;;;5035925;28;20040;-68
2022/07/11 01:20:19;;;;;;;7.03;4.60;;;14.70;99.90;;;;;;5037267;28;20116;-68
2022/07/11 01:22:50;;;;;;;7.30;4.15;;;14.70;99.90;;;;;;5054606;28;20040;-68
2022/07/11 01:25:30;;;;;;;6.50;4.15;;;14.80;99.90;;;;;;5054050;28;20551;-67
2022/07/11 01:28:08;;;;;;;7.97;5.05;;;14.70;99.90;;;;;;5059573;28;20041;-67
2022/07/11 01:30:34;;;;;;;11.00;6.15;;;14.80;99.90;;;;;;5058769;28;20028;-67
2022/07/11 01:33:00;;;;;;;10.82;5.70;;;14.70;99.90;;;;;;5057800;28;20051;-70
2022/07/11 01:35:27;;;;;;;10.27;5.72;;;14.80;99.90;;;;;;5056542;28;20117;-69
2022/07/11 01:37:53;;;;;;;10.18;5.50;;;14.80;99.90;;;;;;5051203;28;20044;-68
2022/07/11 01:40:19;;;;;;;8.82;6.47;;;14.80;99.90;;;;;;5050812;28;20044;-69
2022/07/11 01:42:45;;;;;;;14.02;7.30;;;14.70;99.90;;;;;;5052436;28;20287;-68
2022/07/11 01:45:11;;;;;;;13.18;7.60;;;14.70;99.90;;;;;;5052424;28;20125;-69
2022/07/11 01:47:38;;;;;;;13.68;8.07;;;14.80;99.90;;;;;;5032647;28;20100;-68
2022/07/11 01:50:04;;;;;;;13.73;7.90;;;14.70;99.90;;;;;;5054916;28;20051;-68
2022/07/11 01:52:30;;;;;;;14.98;9.55;;;14.80;99.90;;;;;;5052211;28;20044;-67
2022/07/11 01:54:55;;;;;;;18.55;8.27;;;14.80;99.90;;;;;;5051697;28;20046;-70
2022/07/11 01:57:21;;;;;;;15.55;8.50;;;14.80;99.90;;;;;;5052863;28;20766;-69
2022/07/11 01:59:47;;;;;;;16.10;7.15;;;14.90;99.90;;;;;;5037106;28;20377;-68
2022/07/11 02:02:13;;;;;;;17.08;8.82;;;14.90;99.90;;;;;;5054446;28;20075;-67
2022/07/11 02:04:40;;;;;;;13.40;7.32;;;14.80;99.90;;;;;;5055041;28;20040;-68
2022/07/11 02:07:06;;;;;;;18.20;7.88;;;14.80;99.90;;;;;;5036726;28;20035;-68
2022/07/11 02:09:31;;;;;;;18.70;8.77;;;14.90;99.90;;;;;;5057417;28;20748;-69
2022/07/11 02:11:57;;;;;;;12.70;7.03;;;14.80;99.90;;;;;;5057839;28;20052;-68
2022/07/11 02:14:23;;;;;;;15.35;7.05;;;14.90;99.90;;;;;;5061698;28;20048;-67
2022/07/11 02:16:48;;;;;;;10.80;6.05;;;14.80;99.90;;;;;;5059154;28;20105;-69
2022/07/11 02:19:14;;;;;;;14.15;5.80;;;14.90;99.90;;;;;;5051634;28;20051;-69
2022/07/11 02:21:40;;;;;;;10.45;4.70;;;14.90;99.90;;;;;;5051385;28;20055;-68
2022/07/11 02:24:05;;;;;;;10.77;4.13;;;14.90;99.90;;;;;;5057064;28;20697;-70
2022/07/11 02:26:31;;;;;;;9.23;4.20;;;14.90;99.90;;;;;;5052645;28;20093;-68
2022/07/11 02:28:57;;;;;;;14.40;4.82;;;14.90;99.90;;;;;;5054827;28;20039;-68
2022/07/11 02:31:23;;;;;;;10.80;4.25;;;14.80;99.90;;;;;;5056359;28;20588;-68
2022/07/11 02:33:49;;;;;;;6.45;3.63;;;14.80;99.90;;;;;;5060873;28;20726;-69
2022/07/11 02:36:14;;;;;;;9.40;4.38;;;14.80;99.90;;;;;;5055869;28;20075;-69
2022/07/11 02:38:42;;;;;;;8.40;3.63;;;14.80;99.90;;;;;;5055283;28;20052;-67
2022/07/11 02:41:07;;;;;;;9.23;4.30;;;14.70;99.90;;;;;;5054441;28;20130;-70
2022/07/11 02:43:33;;;;;;;9.00;4.25;;;14.80;99.90;;;;;;5057046;28;20163;-69
2022/07/11 02:45:59;;;;;;;8.75;3.72;;;14.80;99.90;;;;;;5053900;28;20197;-69
2022/07/11 02:48:25;;;;;;;5.88;3.38;;;14.80;99.90;;;;;;5060088;28;20535;-69
2022/07/11 02:50:51;;;;;;;4.03;2.38;;;14.80;99.90;;;;;;5057337;28;20044;-68
2022/07/11 02:53:17;;;;;;;8.23;3.88;;;14.80;99.90;;;;;;5054496;28;20070;-69
2022/07/11 02:55:42;;;;;;;3.33;1.38;;;14.70;99.90;;;;;;5057576;28;20063;-69
2022/07/11 02:58:08;;;;;;;5.68;1.60;;;14.70;99.90;;;;;;5056388;28;20040;-67
2022/07/11 03:00:34;;;;;;;2.75;1.10;;;14.80;99.90;;;;;;5055376;28;20644;-70
2022/07/11 03:03:00;;;;;;;3.35;0.85;;;14.70;99.90;;;;;;5056821;28;20101;-68
2022/07/11 03:05:25;;;;;;;2.35;0.95;;;14.60;99.90;;;;;;5055934;28;20575;-67
2022/07/11 03:07:51;;;;;;;4.15;1.15;;;14.70;99.90;;;;;;5054949;28;20052;-69
2022/07/11 03:10:16;;;;;;;3.03;1.10;;;14.70;99.90;;;;;;5057261;28;20056;-67
2022/07/11 03:12:43;;;;;;;2.72;0.80;;;14.60;99.90;;;;;;5056052;28;20048;-70
2022/07/11 03:15:09;;;;;;;1.88;0.77;;;14.70;99.90;;;;;;5074315;28;20352;-69
2022/07/11 03:17:36;;;;;;;2.53;0.65;;;14.70;99.90;;;;;;5057611;28;20052;-70
2022/07/11 03:20:02;;;;;;;1.77;0.80;;;14.80;99.90;;;;;;5053471;28;20070;-69
2022/07/11 03:22:28;;;;;;;3.85;1.08;;;14.80;99.90;;;;;;5053459;28;20032;-68
2022/07/11 03:24:54;;;;;;;7.57;1.50;;;14.70;99.90;;;;;;5055712;28;20048;-68
2022/07/11 03:27:20;;;;;;;4.03;1.23;;;14.70;99.90;;;;;;5059632;28;20044;-68
2022/07/11 03:29:46;;;;;;;9.13;1.40;;;14.80;99.90;;;;;;5053930;28;20109;-69
2022/07/11 03:32:12;;;;;;;7.85;1.63;;;14.80;99.90;;;;;;5056251;28;20040;-68
2022/07/11 03:34:38;;;;;;;5.40;0.95;;;14.80;99.90;;;;;;5057028;28;20135;-68
2022/07/11 03:37:04;;;;;;;3.70;1.33;;;14.80;99.90;;;;;;5055728;28;20051;-68
2022/07/11 03:39:29;;;;;;;3.47;1.40;;;14.80;99.90;;;;;;5051925;28;20049;-68
2022/07/11 03:41:55;;;;;;;6.95;1.55;;;14.80;99.90;;;;;;5056084;28;20369;-68
2022/07/11 03:44:21;;;;;;;3.83;1.40;;;14.80;99.90;;;;;;5054575;28;20115;-67
2022/07/11 03:46:47;;;;;;;4.72;1.48;;;14.80;99.90;;;;;;5053670;28;20063;-68
2022/07/11 03:49:14;;;;;;;5.45;1.95;;;14.90;99.90;;;;;;5051488;28;20055;-67
2022/07/11 03:51:39;;;;;;;4.68;1.73;;;14.90;99.90;;;;;;5057490;28;20535;-69
2022/07/11 03:54:06;;;;;;;5.20;1.50;;;14.80;99.90;;;;;;5054066;28;20050;-69
2022/07/11 03:56:31;;;;;;;2.85;1.20;;;14.90;99.90;;;;;;5054612;28;20080;-69
2022/07/11 03:58:57;;;;;;;5.13;0.93;;;14.90;99.90;;;;;;5036437;28;20124;-70
2022/07/11 04:01:23;;;;;;;3.70;1.00;;;14.80;99.90;;;;;;5055970;28;20046;-69
2022/07/11 04:03:49;;;;;;;5.13;0.60;;;14.90;99.90;;;;;;5054724;28;20898;-69
2022/07/11 04:06:16;;;;;;;3.30;0.80;;;14.90;99.90;;;;;;5054613;28;20037;-69
2022/07/11 04:08:42;;;;;;;3.13;0.88;;;14.80;99.90;;;;;;5056040;28;20139;-68
2022/07/11 04:11:07;;;;;;;2.75;0.80;;;14.80;99.90;;;;;;5056193;28;20032;-69
2022/07/11 04:13:34;;;;;;;2.63;1.02;;;14.90;99.90;;;;;;5056931;28;20940;-69
2022/07/11 04:15:59;;;;;;;6.45;0.70;;;14.90;99.90;;;;;;5035344;28;20055;-69
2022/07/11 04:18:25;;;;;;;2.40;0.82;;;14.90;99.90;;;;;;5057523;28;20040;-69
2022/07/11 04:20:51;;;;;;;2.78;0.70;;;14.90;99.90;;;;;;5055067;28;20141;-68
2022/07/11 04:23:17;;;;;;;2.50;0.73;;;14.90;99.90;;;;;;5069950;28;20075;-69
2022/07/11 04:25:43;;;;;;;2.58;0.50;;;15.00;99.90;;;;;;5050984;28;20036;-69
2022/07/11 04:28:08;;;;;;;3.53;0.50;;;14.90;99.90;;;;;;5049682;28;20043;-69
2022/07/11 04:30:34;;;;;;;3.50;0.73;;;15.00;99.90;;;;;;5055921;28;20625;-68
2022/07/11 04:33:00;;;;;;;3.28;0.55;;;15.10;99.90;;;;;;5033708;28;20052;-68
2022/07/11 04:35:27;;;;;;;2.15;0.50;;;15.10;99.90;;;;;;5051643;28;20056;-68
2022/07/11 04:37:54;;;;;;;2.38;0.52;;;15.00;99.90;;;;;;5052461;28;20106;-69
2022/07/11 04:40:23;;;;;;;3.33;0.45;;;15.10;99.90;;;;;;5054546;28;20082;-67
2022/07/11 04:42:49;;;;;;;3.35;0.50;;;15.10;99.90;;;;;;5055972;28;20101;-69
2022/07/11 04:45:15;;;;;;;3.75;0.60;;;15.10;99.90;;;;;;5053287;28;20060;-68
2022/07/11 04:47:41;;;;;;;4.00;0.55;;;15.10;99.90;;;;;;5052464;28;20648;-69
2022/07/11 04:50:08;;;;;;;2.28;0.68;;;15.10;99.90;;;;;;5054421;28;20083;-69
2022/07/11 04:52:34;;;;;;;3.22;0.47;;;15.10;99.90;;;;;;5055408;28;20137;-69
2022/07/11 04:54:59;;;;;;;4.72;0.30;;;15.10;99.90;;;;;;5055376;28;21169;-68
2022/07/11 04:57:26;;;;;;;5.78;0.20;;;15.20;99.90;;;;;;5056825;28;20054;-68
2022/07/11 04:59:52;;;;;;;0.28;0.10;;;15.20;99.90;;;;;;5039116;28;20040;-68
2022/07/11 05:02:18;;;;;;;0.95;0.10;;;15.30;99.90;;;;;;5056644;28;20040;-68
2022/07/11 05:04:45;;;;;;;1.40;0.10;;;15.20;99.90;;;;;;5056790;28;20048;-69
2022/07/11 05:07:13;;;;;;;1.92;0.10;;;15.10;99.90;;;;;;5056104;28;20044;-68
2022/07/11 05:09:39;;;;;;;1.50;0.22;;;15.20;99.90;;;;;;5069906;28;20064;-67
2022/07/11 05:12:06;;;;;;;1.40;0.10;;;15.10;99.90;;;;;;5055398;28;20096;-68
2022/07/11 05:14:32;;;;;;;1.75;0.20;;;15.20;99.90;;;;;;5055244;28;20410;-68
2022/07/11 05:16:57;;;;;;;1.35;0.10;;;15.10;99.90;;;;;;5053589;28;20036;-68
2022/07/11 05:19:23;;;;;;;1.58;0.10;;;15.20;99.90;;;;;;5055369;28;20145;-69
2022/07/11 05:21:49;;;;;;;3.53;0.20;;;15.20;99.90;;;;;;5049676;28;20036;-68
2022/07/11 05:24:15;;;;;;;1.23;0.20;;;15.20;99.90;;;;;;5052497;28;20055;-68
2022/07/11 05:26:42;;;;;;;1.58;0.10;;;15.20;99.90;;;;;;5055462;28;20048;-68
2022/07/11 05:29:08;;;;;;;2.80;0.25;;;15.30;99.90;;;;;;5059565;28;20043;-70
2022/07/11 05:31:33;;;;;;;2.42;0.20;;;15.30;99.90;;;;;;5053851;28;20044;-68
2022/07/11 05:33:59;;;;;;;2.05;0.15;;;15.30;99.90;;;;;;5057516;28;20059;-68
2022/07/11 05:36:25;;;;;;;2.53;0.20;;;15.40;99.90;;;;;;5056254;28;20044;-68
2022/07/11 05:38:50;;;;;;;3.97;0.28;;;15.40;99.90;;;;;;5058426;28;20132;-68
2022/07/11 05:41:16;;;;;;;1.83;0.20;;;15.50;99.90;;;;;;5060778;28;20036;-68
2022/07/11 05:43:41;;;;;;;4.25;0.40;;;15.60;99.90;;;;;;5057530;28;20105;-69
2022/07/11 05:46:07;;;;;;;2.85;0.20;;;15.80;99.90;;;;;;5063323;28;20049;-69
2022/07/11 05:48:33;;;;;;;2.65;0.22;;;15.80;99.90;;;;;;5061256;28;20090;-69
2022/07/11 05:50:58;;;;;;;1.55;0.20;;;15.90;99.90;;;;;;5057963;28;20075;-69
2022/07/11 05:53:24;;;;;;;1.30;0.20;;;16.00;99.90;;;;;;5056944;28;20097;-69
2022/07/11 05:55:50;;;;;;;3.17;0.13;;;16.00;99.90;;;;;;5058804;28;20119;-69
2022/07/11 05:58:15;;;;;;;1.92;0.20;;;16.00;99.90;;;;;;5059567;28;20040;-68
2022/07/11 06:00:41;;;;;;;2.63;0.20;;;16.00;99.90;;;;;;5060335;28;20064;-70
2022/07/11 06:03:07;;;;;;;2.75;0.57;;;15.90;99.90;;;;;;5054269;28;20063;-68
2022/07/11 06:05:32;;;;;;;1.27;0.10;;;16.00;99.90;;;;;;5060202;28;20593;-69
2022/07/11 06:10:42;;;;;;;1.67;0.10;;;16.00;99.90;;;;;;5060860;28;20048;-69
2022/07/11 06:13:08;;;;;;;0.63;0.15;;;16.10;99.90;;;;;;5056563;28;20048;-70
2022/07/11 06:15:34;;;;;;;2.55;0.10;;;16.10;99.90;;;;;;5057551;28;20059;-68
2022/07/11 06:17:59;;;;;;;2.72;0.10;;;16.30;99.90;;;;;;5057288;28;20139;-69
2022/07/11 06:20:25;;;;;;;2.33;0.10;;;16.30;99.90;;;;;;5058615;28;20040;-69
2022/07/11 06:22:53;;;;;;;0.90;0.08;;;16.40;99.90;;;;;;5057112;28;20046;-69
2022/07/11 06:25:19;;;;;;;0.77;0.00;;;16.50;99.90;;;;;;5056742;28;20044;-69
2022/07/11 06:27:44;;;;;;;3.50;0.10;;;16.60;99.90;;;;;;5055237;28;20121;-69
2022/07/11 06:30:10;;;;;;;18.10;0.30;;;16.70;99.90;;;;;;5058874;28;20807;-70
2022/07/11 06:32:36;;;;;;;2.38;0.28;;;16.70;99.90;;;;;;5055219;28;20621;-69
2022/07/11 06:35:03;;;;;;;0.43;0.00;;;16.70;99.90;;;;;;5077362;28;20052;-69
2022/07/11 06:37:28;;;;;;;3.47;0.10;;;16.70;99.90;;;;;;5060106;28;20033;-71
2022/07/11 06:39:54;;;;;;;5.03;0.10;;;16.80;99.90;;;;;;5034897;28;20051;-69
2022/07/11 06:42:19;;;;;;;4.78;0.10;;;16.80;99.90;;;;;;5055914;28;20048;-68
2022/07/11 06:44:45;;;;;;;0.68;0.00;;;16.80;99.90;;;;;;5050661;28;20440;-69
2022/07/11 06:47:11;;;;;;;2.60;0.10;;;16.90;99.90;;;;;;5050034;28;20079;-70
2022/07/11 06:49:36;;;;;;;1.38;0.10;;;16.90;99.90;;;;;;5052734;28;20032;-68
2022/07/11 06:52:03;;;;;;;0.90;0.00;;;16.90;99.90;;;;;;5055926;28;21087;-68
2022/07/11 06:54:29;;;;;;;0.60;0.00;;;17.00;99.90;;;;;;5057930;28;20059;-70
2022/07/11 06:56:54;;;;;;;0.60;0.00;;;17.20;99.90;;;;;;5054819;28;20599;-70
2022/07/11 06:59:20;;;;;;;6.90;0.20;;;17.20;99.90;;;;;;5056154;28;20057;-69
2022/07/11 07:01:46;;;;;;;4.15;0.40;;;17.30;99.90;;;;;;5058270;28;20341;-69
2022/07/11 07:04:11;;;;;;;5.82;0.10;;;17.40;99.90;;;;;;5055056;28;20224;-69
2022/07/11 07:06:37;;;;;;;2.13;0.00;;;17.50;99.90;;;;;;5052682;28;20162;-70
2022/07/11 07:09:03;;;;;;;1.27;0.00;;;17.30;99.90;;;;;;5055870;28;20044;-68
2022/07/11 07:11:28;;;;;;;0.55;0.00;;;17.60;99.90;;;;;;5056042;28;20043;-69
2022/07/11 07:13:54;;;;;;;0.65;0.00;;;17.40;99.90;;;;;;5056185;28;20082;-69
2022/07/11 07:16:20;;;;;;;0.40;0.00;;;17.30;99.90;;;;;;5050628;28;20067;-70
2022/07/11 07:18:47;;;;;;;0.65;0.00;;;17.40;99.90;;;;;;5037567;28;20105;-69
2022/07/11 07:21:13;;;;;;;0.40;0.00;;;17.30;99.90;;;;;;5055890;28;20052;-69
2022/07/11 07:23:38;;;;;;;0.35;0.00;;;17.40;99.90;;;;;;5054060;28;20028;-68
2022/07/11 07:26:04;;;;;;;1.20;0.00;;;17.50;99.90;;;;;;5058336;28;20387;-67
2022/07/11 07:28:31;;;;;;;0.30;0.00;;;17.50;99.90;;;;;;5057901;28;20056;-70
2022/07/11 07:30:57;;;;;;;2.83;0.10;;;17.40;99.90;;;;;;5058438;28;20045;-69
2022/07/11 07:33:22;;;;;;;0.43;0.00;;;17.40;99.90;;;;;;5048208;28;20045;-68
2022/07/11 07:35:48;;;;;;;0.52;0.10;;;17.40;99.90;;;;;;5038563;28;20693;-68
2022/07/11 07:38:14;;;;;;;0.98;0.10;;;17.20;99.90;;;;;;5053737;28;20178;-69
2022/07/11 07:40:39;;;;;;;1.52;0.10;;;17.10;99.90;;;;;;5054180;28;20051;-67
2022/07/11 07:43:06;;;;;;;2.35;0.10;;;17.10;99.90;;;;;;5057235;28;20044;-69
2022/07/11 07:45:32;;;;;;;0.70;0.20;;;17.20;99.90;;;;;;5052199;28;20098;-69
2022/07/11 07:47:58;;;;;;;0.52;0.10;;;16.90;99.90;;;;;;5054427;28;20063;-69
2022/07/11 07:50:24;;;;;;;1.25;0.10;;;16.90;99.90;;;;;;5053954;28;20147;-69
2022/07/11 07:52:51;;;;;;;0.50;0.00;;;16.80;99.90;;;;;;5057262;28;20041;-70
2022/07/11 07:55:16;;;;;;;0.20;0.00;;;16.90;99.90;;;;;;5057364;28;20052;-69
2022/07/11 07:57:42;;;;;;;0.90;0.00;;;17.00;99.90;;;;;;5056344;28;20545;-69
2022/07/11 08:02:53;;;;;;;0.43;0.00;;;17.40;99.90;;;;;;5055805;28;20056;-67
2022/07/11 08:05:19;;;;;;;0.20;0.00;;;17.70;99.90;;;;;;5054553;28;20224;-69
2022/07/11 08:07:45;;;;;;;0.43;0.00;;;17.60;99.90;;;;;;5053476;28;20177;-68
2022/07/11 08:10:12;;;;;;;0.20;0.00;;;17.60;99.90;;;;;;5035586;28;20534;-69
2022/07/11 08:12:38;;;;;;;0.40;0.00;;;17.70;99.90;;;;;;5055237;28;20036;-69
2022/07/11 08:15:04;;;;;;;1.35;0.00;;;18.00;99.90;;;;;;5053739;28;20169;-70
2022/07/11 08:17:30;;;;;;;1.13;0.00;;;18.30;99.90;;;;;;5053480;28;20044;-69
2022/07/11 08:19:56;;;;;;;0.28;0.00;;;18.30;99.90;;;;;;5054862;28;20054;-69
2022/07/11 08:22:21;;;;;;;0.70;0.00;;;18.30;99.90;;;;;;5055063;28;20044;-68
2022/07/11 08:24:47;;;;;;;0.10;0.00;;;18.30;99.90;;;;;;5053567;28;20535;-70
2022/07/11 08:27:13;;;;;;;0.15;0.00;;;18.50;99.90;;;;;;5052731;28;20053;-69
2022/07/11 08:29:38;;;;;;;0.10;0.00;;;18.50;99.90;;;;;;5034636;28;20040;-68
2022/07/11 08:32:04;;;;;;;0.30;0.00;;;18.80;99.90;;;;;;5055111;28;20048;-68
2022/07/11 08:34:30;;;;;;;0.40;0.00;;;18.70;99.90;;;;;;5055718;28;20173;-69
2022/07/11 08:36:56;;;;;;;1.10;0.00;;;18.40;99.90;;;;;;5052386;28;20482;-72
2022/07/11 08:39:21;;;;;;;1.45;0.10;;;18.20;99.90;;;;;;5053337;28;20534;-70
2022/07/11 08:41:47;;;;;;;0.82;0.10;;;18.00;99.90;;;;;;5058759;28;20043;-69
2022/07/11 08:44:14;;;;;;;2.20;0.10;;;18.10;99.90;;;;;;5053378;28;20043;-69
2022/07/11 08:46:41;;;;;;;0.88;0.00;;;18.10;99.90;;;;;;5057736;28;20621;-68
2022/07/11 08:49:06;;;;;;;0.73;0.00;;;17.80;99.90;;;;;;5056481;28;20052;-69
2022/07/11 08:51:36;;;;;;;0.70;0.00;;;17.40;99.90;;;;;;5036566;28;20121;-67
2022/07/11 08:54:02;;;;;;;0.73;0.00;;;17.20;99.90;;;;;;5054780;28;20798;-68
2022/07/11 08:56:29;;;;;;;0.75;0.00;;;16.90;99.90;;;;;;5071070;28;20044;-69
2022/07/11 08:58:57;;;;;;;1.10;0.00;;;17.10;99.90;;;;;;5039918;28;20484;-69
2022/07/11 09:01:29;;;;;;;0.35;0.00;;;17.20;99.90;;;;;;5059419;28;20497;-68
2022/07/11 09:03:55;;;;;;;1.30;0.00;;;17.10;99.90;;;;;;5058773;28;20131;-69
2022/07/11 09:06:21;;;;;;;0.52;0.00;;;17.10;99.90;;;;;;5057976;28;20052;-68
2022/07/11 09:08:46;;;;;;;0.47;0.00;;;17.40;99.90;;;;;;5041010;28;20043;-70
2022/07/11 09:11:12;;;;;;;0.20;0.00;;;17.80;99.90;;;;;;5057787;28;20044;-69
2022/07/11 09:13:38;;;;;;;0.17;0.00;;;18.00;99.90;;;;;;5055401;28;20044;-69
2022/07/11 09:16:06;;;;;;;0.70;0.00;;;18.30;99.90;;;;;;5038915;28;20121;-68
2022/07/11 09:18:40;;;;;;;0.77;0.08;;;18.40;99.90;;;;;;5075252;28;20033;-68
2022/07/11 09:26:46;;;;;;;0.28;0.00;;;18.40;99.90;;;;;;5056416;28;20680;-67
2022/07/11 09:29:12;;;;;;;0.68;0.00;;;18.20;99.90;;;;;;5058841;28;20480;-68
2022/07/11 09:31:40;;;;;;;0.85;0.00;;;18.30;99.90;;;;;;5058206;28;20109;-68
2022/07/11 09:34:14;;;;;;;1.05;0.00;;;18.40;99.90;;;;;;5061051;28;20036;-68
2022/07/11 09:36:57;;;;;;;0.32;0.00;;;18.20;99.90;;;;;;5056672;28;20043;-69
2022/07/11 09:39:26;;;;;;;0.55;0.00;;;18.10;99.90;;;;;;5057907;28;20086;-68
2022/07/11 09:41:53;;;;;;;0.57;0.00;;;17.90;99.90;;;;;;5056558;28;20135;-69
2022/07/11 09:44:33;;;;;;;1.25;0.00;;;17.90;99.90;;;;;;5057977;28;20055;-69
2022/07/11 09:46:59;;;;;;;0.80;0.00;;;18.00;99.90;;;;;;5057833;28;20052;-69
2022/07/11 09:49:49;;;;;;;2.90;0.22;;;18.10;99.90;;;;;;5055971;28;20427;-69
2022/07/11 09:52:16;;;;;;;1.75;0.10;;;18.30;99.90;;;;;;5052639;28;20492;-70
2022/07/11 09:54:56;;;;;;;0.47;0.00;;;18.60;99.90;;;;;;5057584;28;21208;-69
2022/07/11 09:57:35;;;;;;;0.25;0.00;;;18.70;99.90;;;;;;5074008;28;20052;-69
2022/07/11 10:00:05;;;;;;;0.60;0.10;;;18.70;99.90;;;;;;5055203;28;20741;-68
2022/07/11 10:02:31;;;;;;;0.80;0.00;;;18.70;99.90;;;;;;5057339;28;20129;-68
2022/07/11 10:04:59;;;;;;;3.40;0.20;;;18.70;99.90;;;;;;5049105;28;20139;-69
2022/07/11 10:07:25;;;;;;;0.40;0.00;;;18.50;99.90;;;;;;5053515;28;20325;-68
2022/07/11 10:09:51;;;;;;;0.82;0.05;;;18.60;99.90;;;;;;5052294;28;20484;-69
2022/07/11 10:12:17;;;;;;;2.65;0.25;;;18.70;99.90;;;;;;5051786;28;20084;-67
2022/07/11 10:14:44;;;;;;;1.73;0.05;;;18.80;99.90;;;;;;5033980;28;20044;-69
2022/07/11 10:17:36;;;;;;;0.35;0.00;;;18.70;99.90;;;;;;5051236;28;20048;-69
2022/07/11 10:20:39;;;;;;;1.20;0.00;;;18.80;99.90;;;;;;5055772;28;20036;-68
2022/07/11 10:23:10;;;;;;;4.75;0.35;;;19.00;99.90;;;;;;5032962;28;20843;-68
2022/07/11 10:25:45;;;;;;;1.10;0.00;;;18.80;99.90;;;;;;5056093;28;20044;-68
2022/07/11 10:28:36;;;;;;;1.55;0.00;;;18.90;99.90;;;;;;5054836;28;20772;-70
2022/07/11 10:31:03;;;;;;;1.85;0.00;;;19.00;99.90;;;;;;5057591;28;20371;-68
2022/07/11 10:33:29;;;;;;;1.10;0.00;;;19.10;99.90;;;;;;5054902;28;20041;-67
2022/07/11 10:35:56;;;;;;;1.08;0.00;;;19.00;99.90;;;;;;5051749;28;20802;-68
2022/07/11 10:38:23;;;;;;;0.93;0.10;;;18.80;99.90;;;;;;5061194;28;20051;-66
2022/07/11 10:40:55;;;;;;;0.30;0.00;;;18.90;99.90;;;;;;5053950;28;20055;-67
2022/07/11 10:43:30;;;;;;;0.38;0.00;;;18.90;99.90;;;;;;5056957;28;20040;-67
2022/07/11 10:46:12;;;;;;;0.50;0.00;;;18.90;99.90;;;;;;5055511;28;20048;-67
2022/07/11 10:49:05;;;;;;;0.88;0.00;;;19.00;99.90;;;;;;5053389;28;20052;-67
2022/07/11 10:51:45;;;;;;;0.30;0.00;;;19.00;99.90;;;;;;5057638;28;20670;-70
2022/07/11 10:54:42;;;;;;;1.30;0.10;;;19.10;99.90;;;;;;5054347;28;20051;-67
2022/07/11 10:57:16;;;;;;;1.23;0.00;;;19.30;99.90;;;;;;5052293;28;20174;-68
2022/07/11 11:00:07;;;;;;;1.92;0.03;;;19.50;99.90;;;;;;5056222;28;20594;-67
2022/07/11 11:03:01;;;;;;;0.82;0.00;;;19.50;99.90;;;;;;5055924;28;20049;-68
2022/07/11 11:05:44;;;;;;;0.15;0.00;;;19.30;99.90;;;;;;5036315;28;20128;-67
2022/07/11 11:08:48;;;;;;;0.85;0.00;;;19.50;99.90;;;;;;5058649;28;21065;-68
2022/07/11 11:11:23;;;;;;;1.08;0.00;;;19.10;99.90;;;;;;4989915;28;21085;-68
2022/07/11 11:14:20;;;;;;;0.22;0.00;;;19.20;99.90;;;;;;5006052;28;20686;-68
2022/07/11 11:16:47;;;;;;;1.23;0.10;;;19.20;99.90;;;;;;5031786;28;20873;-69
2022/07/11 11:19:50;;;;;;;1.60;0.08;;;19.40;99.90;;;;;;5053121;28;20098;-69
2022/07/11 11:22:17;;;;;;;1.30;0.20;;;19.50;99.90;;;;;;5055622;28;20048;-69
2022/07/11 11:24:44;;;;;;;0.30;0.00;;;19.40;99.90;;;;;;5054589;28;20134;-69
2022/07/11 11:27:26;;;;;;;1.00;0.00;;;19.50;99.90;;;;;;5037309;28;20150;-69
2022/07/11 11:29:55;;;;;;;0.87;0.00;;;19.50;99.90;;;;;;5051822;28;20102;-68
2022/07/11 11:32:27;;;;;;;0.60;0.00;;;20.00;99.90;;;;;;5053659;28;20059;-69
2022/07/11 11:34:54;;;;;;;0.32;0.00;;;20.40;99.90;;;;;;5063508;28;20048;-69
2022/07/11 11:37:21;;;;;;;2.33;0.00;;;20.40;99.90;;;;;;5052835;28;20053;-67
2022/07/11 11:39:47;;;;;;;0.63;0.03;;;20.70;99.90;;;;;;5054671;28;20659;-68
2022/07/11 11:42:15;;;;;;;1.23;0.00;;;20.60;99.90;;;;;;5054727;28;20043;-68
2022/07/11 11:45:17;;;;;;;0.52;0.00;;;20.70;99.90;;;;;;5054562;28;20037;-68
2022/07/11 11:47:49;;;;;;;0.90;0.00;;;20.80;99.90;;;;;;5040704;28;20044;-69
2022/07/11 11:50:15;;;;;;;0.25;0.00;;;20.50;99.90;;;;;;5052196;28;20840;-68
2022/07/11 11:52:40;;;;;;;0.52;0.10;;;20.40;99.90;;;;;;5054390;28;20032;-69
2022/07/11 11:55:09;;;;;;;1.73;0.00;;;20.40;99.90;;;;;;5057235;28;20091;-68
2022/07/11 11:57:34;;;;;;;1.00;0.00;;;20.20;99.90;;;;;;5052511;28;20063;-68
2022/07/11 12:00:00;;;;;;;0.85;0.10;;;20.40;99.90;;;;;;5059900;28;20385;-68
2022/07/11 12:02:30;;;;;;;0.38;0.00;;;20.40;99.90;;;;;;5068527;28;20695;-67
2022/07/11 12:04:58;;;;;;;0.68;0.10;;;19.90;99.90;;;;;;5069859;28;20087;-70
2022/07/11 12:07:27;;;;;;;0.50;0.00;;;19.70;99.90;;;;;;5069877;28;20054;-68
2022/07/11 12:09:55;;;;;;;0.65;0.00;;;19.90;99.90;;;;;;5070056;28;20420;-67
2022/07/11 12:12:47;;;;;;;0.63;0.08;;;19.70;99.90;;;;;;5054668;28;20040;-68
2022/07/11 12:15:25;;;;;;;1.75;0.00;;;19.70;99.90;;;;;;5051251;28;20036;-67
2022/07/11 12:17:52;;;;;;;1.50;0.00;;;19.50;99.90;;;;;;5050152;28;20048;-68
2022/07/11 12:20:47;;;;;;;1.00;0.00;;;19.80;99.90;;;;;;5053571;28;20542;-68
2022/07/11 12:23:17;;;;;;;1.90;0.00;;;20.10;99.90;;;;;;5045522;28;20044;-67
2022/07/11 12:25:43;;;;;;;5.50;0.08;;;20.10;99.90;;;;;;5050560;28;20052;-68
2022/07/11 12:28:09;;;;;;;0.68;0.00;;;20.10;99.90;;;;;;5063335;28;20851;-68
2022/07/11 12:30:36;;;;;;;0.20;0.00;;;19.90;99.90;;;;;;5049612;28;20953;-67
2022/07/11 12:33:13;;;;;;;0.50;0.00;;;19.90;99.90;;;;;;5053798;28;20070;-67
2022/07/11 12:36:00;;;;;;;1.95;0.00;;;19.90;99.90;;;;;;5055253;28;20091;-69
2022/07/11 12:38:46;;;;;;;0.13;0.00;;;19.70;99.90;;;;;;5051391;28;20372;-70
2022/07/11 12:41:13;;;;;;;0.73;0.00;;;19.70;99.90;;;;;;5051803;28;20124;-66
2022/07/11 12:46:33;;;;;;;0.40;0.00;;;20.10;99.90;;;;;;5066070;28;20032;-69
2022/07/11 12:49:03;;;;;;;0.30;0.00;;;20.30;99.90;;;;;;5053791;28;20040;-66
2022/07/11 12:51:34;;;;;;;0.73;0.03;;;20.30;99.90;;;;;;5052476;28;20052;-68
2022/07/11 12:54:05;;;;;;;1.75;0.10;;;20.00;99.90;;;;;;5062690;28;20056;-68
2022/07/11 12:56:31;;;;;;;0.80;0.00;;;20.20;99.90;;;;;;5071800;28;20036;-70
2022/07/11 12:58:58;;;;;;;0.68;0.00;;;20.40;99.90;;;;;;5070400;28;20047;-69
2022/07/11 13:01:24;;;;;;;0.60;0.20;;;20.50;99.90;;;;;;5068097;28;20051;-70
2022/07/11 13:03:51;;;;;;;3.30;0.00;;;20.70;99.90;;;;;;5066470;28;20122;-70
2022/07/11 13:06:16;;;;;;;0.77;0.00;;;20.80;99.90;;;;;;5069136;28;20140;-69